Hauptseite
METAR-TAF:

METAR-TAF

Flughäfen :

Flughafen Morlaix

Morlaix, Frankreich

Breite: 48-36N, Länge: 3-49W, Höhe: 84 m

Beobachtung

Neuester Wetterbericht von vor 14 Minuten, um 12:30 UTC
Wind 12 kt aus West
Temperatur 12°C
Luftfeuchtigkeit 71%
Luftdruck 1014 hPa
Sichtweite 10 km oder mehr
Leicht bewölkt in der Höhe von 2800 ft
Durchbrochene Bewölkung in der Höhe von 4100 ft
Geschlossene Wolkendecke in der Höhe von 5000 ft

METAR: LFRU 261230Z AUTO 26012KT 9999 FEW028 BKN041 OVC050 12/07 Q1014

Zeit: 14:44 (12:44 UTC)


TAF: fehlend

Wetterbeobachtungen und Prognosen von mehr als 4000 Flughäfen (METAR und TAF Bericht).

Die verfügbaren Stationen werden durch gelbe und rote Markierungen auf der Karte dargestellt.

Führen Sie die Maus auf sie, um den Namen der Station zu sehen.

Darauf klicken, um die Beobachtung von Wetterbeobachtungen und Prognosen zu sehen.

Um die Karte zu ändern : klicken Sie auf den grünen Tasten mit einem schwarzen Kreuz Zum Vergrößern, auf den grünen Button mit einem Gedankenstrich zu verkleinern, oder auf die grünen Pfeile für benachbarte Karten.


METAR-TAF: